Time,TemperatureF,DewpointF,PressureIn,WindDirection,WindDirectionDegrees,WindSpeedMPH,WindSpeedGustMPH,Humidity,HourlyPrecipIn,Conditions,Clouds,dailyrainin,SolarRadiationWatts/m^2,SoftwareType,DateUTC
2013-05-24 00:12:00,70.0,-27.0,-100.00,SE,144,8.0,35.0,0,0.00,,,0.01,0.000000,,2013-05-24 10:12:00,
2013-05-24 00:22:00,70.0,-27.0,-100.00,SE,144,8.0,35.0,0,0.00,,,0.01,0.000000,,2013-05-24 10:22:00,
2013-05-24 00:32:00,70.0,-27.0,-100.00,SE,144,8.0,35.0,0,0.00,,,0.01,0.000000,,2013-05-24 10:32:00,
2013-05-24 00:42:00,70.0,-27.0,-100.00,SE,144,8.0,35.0,0,0.00,,,0.01,0.000000,,2013-05-24 10:42:00,
2013-05-24 01:12:00,72.0,-26.0,-100.00,WSW,239,12.0,17.0,0,0.00,,,0.01,0.000000,,2013-05-24 11:12:00,
2013-05-24 01:22:00,72.0,-26.0,-100.00,WSW,239,12.0,17.0,0,0.00,,,0.01,0.000000,,2013-05-24 11:22:00,
2013-05-24 01:32:00,72.0,-26.0,-100.00,WSW,239,12.0,17.0,0,0.00,,,0.01,0.000000,,2013-05-24 11:32:00,
2013-05-24 01:41:00,72.0,-26.0,-100.00,WSW,239,12.0,17.0,0,0.00,,,0.01,0.000000,,2013-05-24 11:41:00,
2013-05-24 01:51:00,72.0,-26.0,-100.00,WSW,239,12.0,17.0,0,0.00,,,0.01,0.000000,,2013-05-24 11:51:00,
2013-05-24 02:11:00,70.0,-27.0,-100.00,ESE,117,16.0,24.0,0,0.00,,,0.01,0.000000,,2013-05-24 12:11:00,
2013-05-24 02:21:00,70.0,-27.0,-100.00,ESE,117,16.0,24.0,0,0.00,,,0.01,0.000000,,2013-05-24 12:21:00,
2013-05-24 02:32:00,70.0,-27.0,-100.00,ESE,117,16.0,24.0,0,0.00,,,0.01,0.000000,,2013-05-24 12:32:00,
2013-05-24 02:42:00,70.0,-27.0,-100.00,ESE,117,16.0,24.0,0,0.00,,,0.01,0.000000,,2013-05-24 12:42:00,
2013-05-24 02:51:00,70.0,-27.0,-100.00,ESE,117,16.0,24.0,0,0.00,,,0.01,0.000000,,2013-05-24 12:51:00,
2013-05-24 02:52:00,72.0,-26.0,-100.00,ESE,122,11.0,36.0,0,0.00,,,0.01,0.000000,,2013-05-24 12:52:00,
2013-05-24 03:11:00,72.0,-26.0,-100.00,ESE,122,11.0,36.0,0,0.00,,,0.01,0.000000,,2013-05-24 13:11:00,
2013-05-24 03:21:00,72.0,-26.0,-100.00,ESE,122,11.0,36.0,0,0.00,,,0.01,0.000000,,2013-05-24 13:21:00,
2013-05-24 03:31:00,72.0,-26.0,-100.00,ESE,122,11.0,36.0,0,0.00,,,0.01,0.000000,,2013-05-24 13:31:00,
2013-05-24 03:41:00,72.0,-26.0,-100.00,ESE,122,11.0,36.0,0,0.00,,,0.01,0.000000,,2013-05-24 13:41:00,
2013-05-24 04:11:00,71.0,-26.0,-100.00,SE,130,11.0,20.0,0,0.00,,,0.01,0.000000,,2013-05-24 14:11:00,
2013-05-24 04:21:00,71.0,-26.0,-100.00,SE,130,11.0,20.0,0,0.00,,,0.01,0.000000,,2013-05-24 14:21:00,
2013-05-24 04:31:00,71.0,-26.0,-100.00,SE,130,11.0,20.0,0,0.00,,,0.01,0.000000,,2013-05-24 14:31:00,
2013-05-24 04:42:00,71.0,-26.0,-100.00,SE,130,11.0,20.0,0,0.00,,,0.01,0.000000,,2013-05-24 14:42:00,
2013-05-24 04:51:00,71.0,-26.0,-100.00,SE,130,11.0,20.0,0,0.00,,,0.01,0.000000,,2013-05-24 14:51:00,
2013-05-24 04:52:00,69.0,-28.0,-100.00,NNE,12,7.0,20.0,0,0.00,,,0.01,0.000000,,2013-05-24 14:52:00,
2013-05-24 05:11:00,69.0,-28.0,-100.00,NNE,12,7.0,20.0,0,0.00,,,0.01,0.000000,,2013-05-24 15:11:00,
2013-05-24 05:21:00,69.0,-28.0,-100.00,NNE,12,7.0,20.0,0,0.00,,,0.01,0.000000,,2013-05-24 15:21:00,
2013-05-24 05:32:00,69.0,-28.0,-100.00,NNE,12,7.0,20.0,0,0.00,,,0.01,0.000000,,2013-05-24 15:32:00,
2013-05-24 05:43:00,69.0,-28.0,-100.00,NNE,12,7.0,20.0,0,0.00,,,0.01,0.000000,,2013-05-24 15:43:00,
2013-05-24 05:52:00,68.0,-28.0,-100.00,SSE,164,7.0,16.0,0,0.00,,,0.01,0.000000,,2013-05-24 15:52:00,
2013-05-24 06:12:00,68.0,-28.0,-100.00,SSE,164,7.0,16.0,0,0.00,,,0.01,0.000000,,2013-05-24 16:12:00,
2013-05-24 06:22:00,68.0,-28.0,-100.00,SSE,164,7.0,16.0,0,0.00,,,0.01,0.000000,,2013-05-24 16:22:00,
2013-05-24 06:32:00,68.0,-28.0,-100.00,SSE,164,7.0,16.0,0,0.00,,,0.01,0.000000,,2013-05-24 16:32:00,
2013-05-24 06:42:00,68.0,-28.0,-100.00,SSE,164,7.0,16.0,0,0.00,,,0.01,0.000000,,2013-05-24 16:42:00,
2013-05-24 06:52:00,68.0,-28.0,-100.00,ESE,104,5.0,15.0,0,0.00,,,0.01,1.000000,,2013-05-24 16:52:00,
2013-05-24 07:12:00,68.0,-28.0,-100.00,ESE,104,5.0,15.0,0,0.00,,,0.01,1.000000,,2013-05-24 17:12:00,
2013-05-24 07:22:00,68.0,-28.0,-100.00,ESE,104,5.0,15.0,0,0.00,,,0.01,1.000000,,2013-05-24 17:22:00,
2013-05-24 07:32:00,68.0,-28.0,-100.00,ESE,104,5.0,15.0,0,0.00,,,0.01,1.000000,,2013-05-24 17:32:00,
2013-05-24 07:41:00,68.0,-28.0,-100.00,ESE,104,5.0,15.0,0,0.00,,,0.01,1.000000,,2013-05-24 17:41:00,
2013-05-24 08:11:00,73.0,-25.0,-100.00,ESE,104,16.0,27.0,0,0.00,,,0.01,121.000000,,2013-05-24 18:11:00,
2013-05-24 08:21:00,73.0,-25.0,-100.00,ESE,104,16.0,27.0,0,0.00,,,0.01,121.000000,,2013-05-24 18:21:00,
2013-05-24 08:32:00,73.0,-25.0,-100.00,ESE,104,16.0,27.0,0,0.00,,,0.01,121.000000,,2013-05-24 18:32:00,
2013-05-24 08:41:00,73.0,-25.0,-100.00,ESE,104,16.0,27.0,0,0.00,,,0.01,121.000000,,2013-05-24 18:41:00,
2013-05-24 08:51:00,73.0,-25.0,-100.00,ESE,104,16.0,27.0,0,0.00,,,0.01,121.000000,,2013-05-24 18:51:00,
2013-05-24 08:52:00,75.0,-24.0,-100.00,SSE,167,13.0,31.0,0,0.00,,,0.01,344.000000,,2013-05-24 18:52:00,
2013-05-24 09:11:00,75.0,-24.0,-100.00,SSE,167,13.0,31.0,0,0.00,,,0.01,344.000000,,2013-05-24 19:11:00,
2013-05-24 09:21:00,75.0,-24.0,-100.00,SSE,167,13.0,31.0,0,0.00,,,0.01,344.000000,,2013-05-24 19:21:00,
2013-05-24 09:31:00,75.0,-24.0,-100.00,SSE,167,13.0,31.0,0,0.00,,,0.01,344.000000,,2013-05-24 19:31:00,
2013-05-24 09:41:00,75.0,-24.0,-100.00,SSE,167,13.0,31.0,0,0.00,,,0.01,344.000000,,2013-05-24 19:41:00,
2013-05-24 10:11:00,75.0,-24.0,-100.00,ESE,110,18.0,25.0,0,0.00,,,0.01,487.000000,,2013-05-24 20:11:00,
2013-05-24 10:21:00,75.0,-24.0,-100.00,ESE,110,18.0,25.0,0,0.00,,,0.01,487.000000,,2013-05-24 20:21:00,
2013-05-24 10:31:00,75.0,-24.0,-100.00,ESE,110,18.0,25.0,0,0.00,,,0.01,487.000000,,2013-05-24 20:31:00,
2013-05-24 10:41:00,75.0,-24.0,-100.00,ESE,110,18.0,25.0,0,0.00,,,0.01,487.000000,,2013-05-24 20:41:00,
2013-05-24 10:51:00,75.0,-24.0,-100.00,ESE,110,18.0,25.0,0,0.00,,,0.01,487.000000,,2013-05-24 20:51:00,
2013-05-24 10:52:00,76.0,-23.0,-100.00,ESE,113,19.0,27.0,0,0.00,,,0.01,441.000000,,2013-05-24 20:52:00,
2013-05-24 11:11:00,76.0,-23.0,-100.00,ESE,113,19.0,27.0,0,0.00,,,0.01,441.000000,,2013-05-24 21:11:00,
2013-05-24 11:21:00,76.0,-23.0,-100.00,ESE,113,19.0,27.0,0,0.00,,,0.01,441.000000,,2013-05-24 21:21:00,
2013-05-24 11:32:00,76.0,-23.0,-100.00,ESE,113,19.0,27.0,0,0.00,,,0.01,441.000000,,2013-05-24 21:32:00,
2013-05-24 11:42:00,76.0,-23.0,-100.00,ESE,113,19.0,27.0,0,0.00,,,0.01,441.000000,,2013-05-24 21:42:00,
2013-05-24 11:52:00,76.0,-23.0,-100.00,SE,143,19.0,35.0,0,0.00,,,0.01,601.000000,,2013-05-24 21:52:00,
2013-05-24 12:12:00,76.0,-23.0,-100.00,SE,143,19.0,35.0,0,0.00,,,0.01,601.000000,,2013-05-24 22:12:00,
2013-05-24 12:22:00,76.0,-23.0,-100.00,SE,143,19.0,35.0,0,0.00,,,0.01,601.000000,,2013-05-24 22:22:00,
2013-05-24 12:32:00,76.0,-23.0,-100.00,SE,143,19.0,35.0,0,0.00,,,0.01,601.000000,,2013-05-24 22:32:00,
2013-05-24 12:42:00,76.0,-23.0,-100.00,SE,143,19.0,35.0,0,0.00,,,0.01,601.000000,,2013-05-24 22:42:00,
2013-05-24 12:52:00,76.0,-23.0,-100.00,North,11,20.0,35.0,0,0.00,,,0.01,717.000000,,2013-05-24 22:52:00,
2013-05-24 13:11:00,76.0,-23.0,-100.00,North,11,20.0,35.0,0,0.00,,,0.01,717.000000,,2013-05-24 23:11:00,
2013-05-24 13:22:00,76.0,-23.0,-100.00,North,11,20.0,35.0,0,0.00,,,0.01,717.000000,,2013-05-24 23:22:00,
2013-05-24 13:32:00,76.0,-23.0,-100.00,North,11,20.0,35.0,0,0.00,,,0.01,717.000000,,2013-05-24 23:32:00,
2013-05-24 13:42:00,76.0,-23.0,-100.00,North,11,20.0,35.0,0,0.00,,,0.01,717.000000,,2013-05-24 23:42:00,
2013-05-24 14:11:00,79.0,-21.0,-100.00,East,94,21.0,30.0,0,0.00,,,0.01,644.000000,,2013-05-25 00:11:00,
2013-05-24 14:21:00,79.0,-21.0,-100.00,East,94,21.0,30.0,0,0.00,,,0.01,644.000000,,2013-05-25 00:21:00,
2013-05-24 14:32:00,79.0,-21.0,-100.00,East,94,21.0,30.0,0,0.00,,,0.01,644.000000,,2013-05-25 00:32:00,
2013-05-24 14:41:00,79.0,-21.0,-100.00,East,94,21.0,30.0,0,0.00,,,0.01,644.000000,,2013-05-25 00:41:00,
2013-05-24 14:51:00,79.0,-21.0,-100.00,East,94,21.0,30.0,0,0.00,,,0.01,644.000000,,2013-05-25 00:51:00,
2013-05-24 14:52:00,77.0,-23.0,-100.00,East,94,16.0,34.0,0,0.00,,,0.01,1030.000000,,2013-05-25 00:52:00,
2013-05-24 15:11:00,77.0,-23.0,-100.00,East,94,16.0,34.0,0,0.00,,,0.01,1030.000000,,2013-05-25 01:11:00,
2013-05-24 15:22:00,77.0,-23.0,-100.00,East,94,16.0,34.0,0,0.00,,,0.01,1030.000000,,2013-05-25 01:22:00,
2013-05-24 15:32:00,77.0,-23.0,-100.00,East,94,16.0,34.0,0,0.00,,,0.01,1030.000000,,2013-05-25 01:32:00,
2013-05-24 15:41:00,77.0,-23.0,-100.00,East,94,16.0,34.0,0,0.00,,,0.01,1030.000000,,2013-05-25 01:41:00,
2013-05-24 16:11:00,73.0,-25.0,-100.00,ESE,106,16.0,29.0,0,0.00,,,0.01,288.000000,,2013-05-25 02:11:00,
2013-05-24 16:21:00,73.0,-25.0,-100.00,ESE,106,16.0,29.0,0,0.00,,,0.01,288.000000,,2013-05-25 02:21:00,
2013-05-24 16:31:00,73.0,-25.0,-100.00,ESE,106,16.0,29.0,0,0.00,,,0.01,288.000000,,2013-05-25 02:31:00,
2013-05-24 16:42:00,73.0,-25.0,-100.00,ESE,106,16.0,29.0,0,0.00,,,0.01,288.000000,,2013-05-25 02:42:00,
2013-05-24 16:51:00,73.0,-25.0,-100.00,ESE,106,16.0,29.0,0,0.00,,,0.01,288.000000,,2013-05-25 02:51:00,
2013-05-24 16:52:00,79.0,-21.0,-100.00,NNW,328,16.0,28.0,0,0.00,,,0.01,565.000000,,2013-05-25 02:52:00,
2013-05-24 17:11:00,79.0,-21.0,-100.00,NNW,328,16.0,28.0,0,0.00,,,0.01,565.000000,,2013-05-25 03:11:00,
2013-05-24 17:21:00,79.0,-21.0,-100.00,NNW,328,16.0,28.0,0,0.00,,,0.01,565.000000,,2013-05-25 03:21:00,
2013-05-24 17:32:00,79.0,-21.0,-100.00,NNW,328,16.0,28.0,0,0.00,,,0.01,565.000000,,2013-05-25 03:32:00,
2013-05-24 17:43:00,79.0,-21.0,-100.00,NNW,328,16.0,28.0,0,0.00,,,0.01,565.000000,,2013-05-25 03:43:00,
2013-05-24 17:52:00,78.0,-22.0,-100.00,NNE,32,17.0,27.0,0,0.00,,,0.01,105.000000,,2013-05-25 03:52:00,
2013-05-24 18:12:00,78.0,-22.0,-100.00,NNE,32,17.0,27.0,0,0.00,,,0.01,105.000000,,2013-05-25 04:12:00,
2013-05-24 18:23:00,78.0,-22.0,-100.00,NNE,32,17.0,27.0,0,0.00,,,0.01,105.000000,,2013-05-25 04:23:00,
2013-05-24 18:32:00,78.0,-22.0,-100.00,NNE,32,17.0,27.0,0,0.00,,,0.01,105.000000,,2013-05-25 04:32:00,
2013-05-24 18:43:00,78.0,-22.0,-100.00,NNE,32,17.0,27.0,0,0.00,,,0.01,105.000000,,2013-05-25 04:43:00,
2013-05-24 18:52:00,76.0,-23.0,-100.00,WNW,301,19.0,31.0,0,0.00,,,0.01,91.000000,,2013-05-25 04:52:00,
2013-05-24 19:12:00,76.0,-23.0,-100.00,WNW,301,19.0,31.0,0,0.00,,,0.01,91.000000,,2013-05-25 05:12:00,
2013-05-24 19:22:00,76.0,-23.0,-100.00,WNW,301,19.0,31.0,0,0.00,,,0.01,91.000000,,2013-05-25 05:22:00,
2013-05-24 19:32:00,76.0,-23.0,-100.00,WNW,301,19.0,31.0,0,0.00,,,0.01,91.000000,,2013-05-25 05:32:00,
2013-05-24 19:42:00,76.0,-23.0,-100.00,WNW,301,19.0,31.0,0,0.00,,,0.01,91.000000,,2013-05-25 05:42:00,
2013-05-24 20:12:00,73.0,-25.0,-100.00,NNE,22,20.0,30.0,0,0.00,,,0.01,66.000000,,2013-05-25 06:12:00,
2013-05-24 20:21:00,73.0,-25.0,-100.00,NNE,22,20.0,30.0,0,0.00,,,0.01,66.000000,,2013-05-25 06:21:00,
2013-05-24 20:32:00,73.0,-25.0,-100.00,NNE,22,20.0,30.0,0,0.00,,,0.01,66.000000,,2013-05-25 06:32:00,
2013-05-24 20:42:00,73.0,-25.0,-100.00,NNE,22,20.0,30.0,0,0.00,,,0.01,66.000000,,2013-05-25 06:42:00,
2013-05-24 20:51:00,73.0,-25.0,-100.00,NNE,22,20.0,30.0,0,0.00,,,0.01,66.000000,,2013-05-25 06:51:00,
2013-05-24 20:52:00,73.0,-25.0,-100.00,NNW,341,14.0,33.0,0,0.00,,,0.00,1.000000,,2013-05-25 06:52:00,
2013-05-24 21:11:00,73.0,-25.0,-100.00,NNW,341,14.0,33.0,0,0.00,,,0.00,1.000000,,2013-05-25 07:11:00,
2013-05-24 21:21:00,73.0,-25.0,-100.00,NNW,341,14.0,33.0,0,0.00,,,0.00,1.000000,,2013-05-25 07:21:00,
2013-05-24 21:31:00,73.0,-25.0,-100.00,NNW,341,14.0,33.0,0,0.00,,,0.00,1.000000,,2013-05-25 07:31:00,
2013-05-24 21:41:00,73.0,-25.0,-100.00,NNW,341,14.0,33.0,0,0.00,,,0.00,1.000000,,2013-05-25 07:41:00,
2013-05-24 22:11:00,72.0,-26.0,-100.00,NNE,18,11.0,33.0,0,0.00,,,0.00,0.000000,,2013-05-25 08:11:00,
2013-05-24 22:22:00,72.0,-26.0,-100.00,NNE,18,11.0,33.0,0,0.00,,,0.00,0.000000,,2013-05-25 08:22:00,
2013-05-24 22:32:00,72.0,-26.0,-100.00,NNE,18,11.0,33.0,0,0.00,,,0.00,0.000000,,2013-05-25 08:32:00,
2013-05-24 22:42:00,72.0,-26.0,-100.00,NNE,18,11.0,33.0,0,0.00,,,0.00,0.000000,,2013-05-25 08:42:00,
2013-05-24 22:51:00,72.0,-26.0,-100.00,NNE,18,11.0,33.0,0,0.00,,,0.00,0.000000,,2013-05-25 08:51:00,
2013-05-24 22:52:00,71.0,-26.0,-100.00,NNW,329,14.0,31.0,0,0.00,,,-99.99,0.000000,,2013-05-25 08:52:00,
2013-05-24 23:11:00,71.0,-26.0,-100.00,NNW,329,14.0,31.0,0,0.00,,,-99.99,0.000000,,2013-05-25 09:11:00,
2013-05-24 23:21:00,71.0,-26.0,-100.00,NNW,329,14.0,31.0,0,0.00,,,-99.99,0.000000,,2013-05-25 09:21:00,
2013-05-24 23:33:00,71.0,-26.0,-100.00,NNW,329,14.0,31.0,0,0.00,,,-99.99,0.000000,,2013-05-25 09:33:00,
2013-05-24 23:42:00,71.0,-26.0,-100.00,NNW,329,14.0,31.0,0,0.00,,,-99.99,0.000000,,2013-05-25 09:42:00,
2013-05-24 23:52:00,70.0,-27.0,-100.00,South,186,6.0,27.0,0,0.00,,,0.00,0.000000,,2013-05-25 09:52:00,